createdAt,value
2019-02-11T00:00:59.999Z,8.28
2019-02-11T00:03:28.636Z,7.08
2019-02-11T00:05:57.311Z,8.30
2019-02-11T00:08:25.996Z,10.32
2019-02-11T00:10:54.673Z,7.00
2019-02-11T00:13:23.406Z,6.90
2019-02-11T00:15:52.112Z,5.42
2019-02-11T00:18:20.869Z,7.55
2019-02-11T00:20:49.573Z,8.57
2019-02-11T00:23:18.224Z,7.47
2019-02-11T00:25:46.918Z,5.03
2019-02-11T00:28:15.611Z,9.20
2019-02-11T00:30:44.309Z,7.03
2019-02-11T00:33:12.981Z,5.10
2019-02-11T00:35:41.660Z,4.97
2019-02-11T00:38:10.374Z,6.33
2019-02-11T00:40:39.069Z,5.57
2019-02-11T00:43:07.738Z,5.08
2019-02-11T00:45:36.544Z,5.05
2019-02-11T00:48:07.043Z,5.47
2019-02-11T00:50:35.679Z,5.10
2019-02-11T00:53:04.440Z,3.02
2019-02-11T00:55:33.157Z,4.03
2019-02-11T00:58:01.822Z,6.43
2019-02-11T01:00:30.490Z,4.47
2019-02-11T01:02:59.244Z,4.62
2019-02-11T01:05:27.912Z,3.85
2019-02-11T01:07:56.650Z,5.85
2019-02-11T01:10:25.359Z,4.10
2019-02-11T01:12:54.078Z,6.60
2019-02-11T01:15:22.991Z,3.22
2019-02-11T01:17:51.672Z,2.42
2019-02-11T01:20:20.386Z,3.80
2019-02-11T01:22:49.100Z,7.00
2019-02-11T01:25:17.819Z,3.65
2019-02-11T01:27:46.526Z,6.10
2019-02-11T01:30:15.202Z,7.35
2019-02-11T01:32:44.025Z,5.90
2019-02-11T01:35:12.774Z,5.00
2019-02-11T01:37:41.453Z,4.92
2019-02-11T01:40:11.092Z,5.65
2019-02-11T01:42:39.809Z,2.00
2019-02-11T01:45:10.628Z,4.17
2019-02-11T01:47:39.307Z,6.33
2019-02-11T01:50:08.936Z,3.72
2019-02-11T01:52:37.710Z,4.92
2019-02-11T01:55:06.427Z,6.85
2019-02-11T01:57:35.192Z,2.30
2019-02-11T02:00:04.079Z,5.95
2019-02-11T02:02:33.890Z,4.43
2019-02-11T02:05:02.646Z,4.12
2019-02-11T02:07:31.356Z,2.00
2019-02-11T02:10:00.034Z,3.17
2019-02-11T02:12:28.751Z,3.98
2019-02-11T02:14:57.422Z,4.85
2019-02-11T02:17:26.071Z,6.97
2019-02-11T02:19:54.754Z,6.08
2019-02-11T02:22:23.487Z,3.27
2019-02-11T02:24:52.172Z,8.03
2019-02-11T02:27:20.987Z,3.27
2019-02-11T02:29:49.655Z,5.47
2019-02-11T02:32:18.319Z,4.35
2019-02-11T02:34:47.065Z,6.75
2019-02-11T02:37:15.714Z,3.50
2019-02-11T02:39:44.374Z,5.55
2019-02-11T02:42:13.139Z,6.90
2019-02-11T02:44:41.843Z,5.78
2019-02-11T02:47:10.509Z,4.92
2019-02-11T02:49:39.219Z,5.78
2019-02-11T02:52:07.878Z,4.72
2019-02-11T02:54:36.563Z,3.83
2019-02-11T02:57:05.214Z,6.37
2019-02-11T02:59:33.887Z,4.43
2019-02-11T03:02:02.688Z,5.67
2019-02-11T03:04:31.404Z,9.60
2019-02-11T03:07:00.089Z,6.10
2019-02-11T03:09:28.802Z,5.00
2019-02-11T03:11:57.533Z,6.53
2019-02-11T03:14:26.294Z,8.80
2019-02-11T03:16:54.948Z,8.85
2019-02-11T03:19:23.608Z,6.37
2019-02-11T03:21:52.278Z,6.75
2019-02-11T03:24:21.046Z,8.85
2019-02-11T03:26:49.731Z,4.83
2019-02-11T03:29:18.407Z,7.33
2019-02-11T03:31:47.140Z,6.83
2019-02-11T03:34:15.908Z,7.97
2019-02-11T03:36:44.692Z,7.17
2019-02-11T03:39:14.308Z,4.00
2019-02-11T03:41:43.060Z,6.53
2019-02-11T03:44:15.122Z,7.37
2019-02-11T03:46:42.159Z,5.80
2019-02-11T03:49:10.811Z,5.20
2019-02-11T03:51:39.675Z,7.10
2019-02-11T03:54:08.318Z,6.50
2019-02-11T03:56:36.964Z,5.62
2019-02-11T03:59:05.635Z,7.72
2019-02-11T04:01:34.390Z,6.40
2019-02-11T04:04:03.125Z,6.95
2019-02-11T04:06:31.884Z,6.20
2019-02-11T04:09:00.629Z,7.50
2019-02-11T04:11:29.381Z,8.08
2019-02-11T04:13:58.106Z,5.20
2019-02-11T04:16:26.778Z,5.92
2019-02-11T04:18:55.518Z,6.28
2019-02-11T04:21:24.235Z,5.20
2019-02-11T04:23:52.915Z,6.28
2019-02-11T04:26:21.635Z,5.72
2019-02-11T04:28:50.327Z,5.30
2019-02-11T04:31:19.045Z,5.75
2019-02-11T04:33:47.789Z,7.10
2019-02-11T04:36:16.449Z,7.12
2019-02-11T04:38:45.199Z,9.45
2019-02-11T04:41:13.905Z,5.35
2019-02-11T04:43:42.670Z,3.95
2019-02-11T04:46:11.389Z,7.87
2019-02-11T04:48:40.089Z,7.08
2019-02-11T04:51:08.886Z,10.00
2019-02-11T04:53:37.596Z,6.97
2019-02-11T04:56:06.332Z,6.83
2019-02-11T04:58:35.024Z,8.65
2019-02-11T05:01:03.722Z,13.70
2019-02-11T05:03:32.402Z,11.22
2019-02-11T05:06:01.386Z,7.45
2019-02-11T05:08:30.221Z,6.05
2019-02-11T05:10:59.014Z,5.90
2019-02-11T05:13:27.668Z,9.03
2019-02-11T05:15:56.318Z,6.83
2019-02-11T05:18:26.083Z,6.87
2019-02-11T05:20:54.771Z,7.37
2019-02-11T05:23:23.514Z,6.17
2019-02-11T05:25:52.174Z,10.72
2019-02-11T05:28:20.915Z,7.67
2019-02-11T05:30:49.657Z,6.35
2019-02-11T05:33:18.467Z,8.90
2019-02-11T05:35:47.682Z,10.43
2019-02-11T05:38:17.447Z,7.77
2019-02-11T05:40:46.140Z,11.83
2019-02-11T05:43:14.869Z,8.20
2019-02-11T05:45:43.638Z,10.43
2019-02-11T05:48:12.334Z,10.60
2019-02-11T05:50:40.972Z,9.50
2019-02-11T05:53:09.634Z,6.75
2019-02-11T05:55:38.319Z,11.20
2019-02-11T05:58:06.985Z,10.58
2019-02-11T06:00:35.670Z,9.15
2019-02-11T06:03:04.355Z,13.58
2019-02-11T06:05:33.016Z,11.10
2019-02-11T06:08:01.667Z,9.63
2019-02-11T06:10:30.434Z,11.93
2019-02-11T06:12:59.077Z,12.93
2019-02-11T06:15:27.809Z,5.47
2019-02-11T06:17:56.562Z,9.58
2019-02-11T06:20:25.448Z,12.55
2019-02-11T06:22:54.171Z,8.83
2019-02-11T06:25:22.900Z,9.38
2019-02-11T06:27:51.633Z,6.83
2019-02-11T06:30:20.279Z,8.55
2019-02-11T06:32:48.934Z,11.97
2019-02-11T06:35:17.591Z,13.10
2019-02-11T06:37:46.275Z,9.90
2019-02-11T06:40:14.926Z,9.50
2019-02-11T06:42:43.591Z,6.87
2019-02-11T06:45:13.463Z,9.85
2019-02-11T06:47:42.436Z,7.87
2019-02-11T06:50:11.854Z,8.13
2019-02-11T06:52:40.761Z,12.65
2019-02-11T06:55:09.979Z,11.22
2019-02-11T06:57:38.818Z,8.27
2019-02-11T07:00:08.804Z,11.65
2019-02-11T07:02:37.540Z,10.55
2019-02-11T07:05:06.439Z,15.03
2019-02-11T07:07:36.691Z,9.83
2019-02-11T07:10:06.059Z,10.93
2019-02-11T07:12:34.814Z,10.40
2019-02-11T07:15:03.491Z,12.05
2019-02-11T07:17:32.271Z,15.15
2019-02-11T07:20:01.027Z,8.70
2019-02-11T07:22:29.913Z,13.15
2019-02-11T07:24:58.719Z,10.30
2019-02-11T07:27:27.505Z,11.08
2019-02-11T07:29:56.299Z,9.20
2019-02-11T07:32:25.084Z,14.80
2019-02-11T07:34:53.905Z,9.03
2019-02-11T07:37:22.559Z,12.23
2019-02-11T07:39:51.264Z,10.95
2019-02-11T07:42:30.556Z,9.20
2019-02-11T07:45:02.321Z,11.43
2019-02-11T07:47:30.989Z,12.03
2019-02-11T07:50:00.759Z,14.98
2019-02-11T07:52:29.507Z,13.08
2019-02-11T07:54:58.303Z,9.70
2019-02-11T07:57:27.009Z,12.43
2019-02-11T07:59:57.282Z,11.57
2019-02-11T08:02:26.191Z,13.15
2019-02-11T08:04:54.902Z,11.95
2019-02-11T08:07:23.579Z,12.30
2019-02-11T08:09:52.258Z,12.88
2019-02-11T08:12:21.099Z,15.07
2019-02-11T08:14:49.817Z,11.53
2019-02-11T08:17:18.510Z,9.73
2019-02-11T08:19:47.231Z,15.48
2019-02-11T08:22:15.978Z,11.93
2019-02-11T08:24:44.678Z,13.20
2019-02-11T08:27:13.355Z,9.28
2019-02-11T08:29:42.004Z,15.35
2019-02-11T08:32:10.694Z,10.95
2019-02-11T08:34:39.454Z,13.25
2019-02-11T08:37:08.356Z,12.98
2019-02-11T08:39:37.088Z,11.80
2019-02-11T08:42:05.804Z,10.10
2019-02-11T08:44:34.470Z,12.15
2019-02-11T08:47:03.315Z,16.05
2019-02-11T08:49:32.055Z,7.95
2019-02-11T08:52:00.784Z,8.40
2019-02-11T08:54:29.519Z,13.38
2019-02-11T08:56:58.180Z,8.50
2019-02-11T08:59:26.994Z,11.07
2019-02-11T09:01:55.708Z,14.83
2019-02-11T09:04:25.437Z,8.38
2019-02-11T09:06:54.129Z,9.15
2019-02-11T09:09:22.884Z,11.65
2019-02-11T09:11:51.584Z,13.05
2019-02-11T09:14:20.421Z,9.78
2019-02-11T09:16:49.217Z,9.50
2019-02-11T09:19:17.903Z,9.95
2019-02-11T09:21:46.599Z,13.08
2019-02-11T09:24:15.338Z,12.78
2019-02-11T09:26:44.059Z,11.43
2019-02-11T09:29:12.859Z,13.53
2019-02-11T09:31:41.653Z,11.38
2019-02-11T09:34:10.317Z,11.08
2019-02-11T09:36:39.187Z,10.72
2019-02-11T09:39:08.799Z,9.50
2019-02-11T09:41:37.447Z,10.60
2019-02-11T09:44:06.194Z,9.35
2019-02-11T09:46:35.007Z,12.33
2019-02-11T09:49:04.026Z,9.35
2019-02-11T09:51:33.657Z,14.30
2019-02-11T09:54:02.358Z,11.63
2019-02-11T09:56:31.031Z,10.88
2019-02-11T09:58:59.803Z,11.53
2019-02-11T10:01:29.511Z,12.37
2019-02-11T10:03:58.228Z,7.45
2019-02-11T10:06:26.920Z,11.93
2019-02-11T10:08:55.597Z,13.15
2019-02-11T10:11:24.315Z,14.10
2019-02-11T10:13:53.088Z,12.68
2019-02-11T10:16:22.311Z,11.43
2019-02-11T10:18:51.055Z,13.67
2019-02-11T10:21:19.718Z,7.53
2019-02-11T10:23:48.427Z,12.15
2019-02-11T10:26:17.115Z,7.25
2019-02-11T10:28:45.772Z,11.57
2019-02-11T10:31:14.471Z,10.95
2019-02-11T10:33:43.305Z,7.15
2019-02-11T10:36:12.015Z,10.68
2019-02-11T10:38:40.710Z,10.77
2019-02-11T10:41:09.454Z,8.15
2019-02-11T10:43:38.158Z,9.95
2019-02-11T10:46:06.831Z,9.73
2019-02-11T10:48:35.481Z,6.35
2019-02-11T10:51:04.245Z,10.08
2019-02-11T10:53:32.969Z,10.00
2019-02-11T10:56:01.607Z,7.53
2019-02-11T10:58:30.306Z,9.90
2019-02-11T11:00:59.074Z,7.25
2019-02-11T11:03:27.838Z,10.55
2019-02-11T11:05:56.593Z,6.40
2019-02-11T11:08:25.519Z,7.58
2019-02-11T11:10:54.156Z,7.33
2019-02-11T11:13:22.818Z,5.72
2019-02-11T11:15:51.528Z,7.30
2019-02-11T11:18:20.305Z,6.00
2019-02-11T11:20:48.971Z,6.87
2019-02-11T11:23:17.706Z,6.03
2019-02-11T11:25:46.673Z,4.95
2019-02-11T11:28:15.497Z,7.20
2019-02-11T11:30:44.331Z,4.17
2019-02-11T11:33:13.007Z,7.87
2019-02-11T11:35:41.754Z,5.43
2019-02-11T11:38:10.428Z,5.90
2019-02-11T11:40:39.524Z,4.75
2019-02-11T11:43:08.213Z,3.60
2019-02-11T11:45:36.975Z,2.20
2019-02-11T11:48:05.625Z,6.60
2019-02-11T11:50:34.411Z,3.87
2019-02-11T11:53:03.214Z,4.92
2019-02-11T11:55:32.819Z,4.00
2019-02-11T11:58:01.734Z,3.58
2019-02-11T12:00:31.648Z,4.95
2019-02-11T12:03:05.264Z,3.03
2019-02-11T12:05:33.391Z,2.90
2019-02-11T12:08:02.244Z,4.28
2019-02-11T12:10:30.967Z,1.52
2019-02-11T12:12:59.809Z,4.27
2019-02-11T12:15:28.586Z,3.33
2019-02-11T12:17:57.373Z,2.90
2019-02-11T12:20:27.305Z,2.70
2019-02-11T12:22:56.017Z,2.73
2019-02-11T12:25:24.713Z,1.47
2019-02-11T12:27:53.498Z,2.70
2019-02-11T12:30:23.329Z,5.20
2019-02-11T12:32:55.033Z,5.37
2019-02-11T12:35:22.523Z,8.55
2019-02-11T12:37:51.454Z,4.58
2019-02-11T12:40:20.231Z,5.28
2019-02-11T12:42:52.406Z,5.67
2019-02-11T12:45:20.188Z,5.22
2019-02-11T12:47:48.906Z,4.92
2019-02-11T12:50:17.929Z,6.80
2019-02-11T12:52:46.654Z,5.12
2019-02-11T12:55:15.459Z,5.00
2019-02-11T12:57:44.225Z,5.83
2019-02-11T13:00:17.972Z,9.65
2019-02-11T13:02:46.911Z,6.70
2019-02-11T13:05:15.698Z,6.30
2019-02-11T13:07:44.466Z,7.90
2019-02-11T13:10:15.367Z,5.55
2019-02-11T13:12:44.317Z,5.58
2019-02-11T13:15:34.065Z,5.58
2019-02-11T13:17:44.627Z,7.17
2019-02-11T13:20:13.432Z,5.67
2019-02-11T13:22:42.219Z,4.15
2019-02-11T13:25:11.761Z,5.62
2019-02-11T13:27:40.587Z,4.67
2019-02-11T13:30:11.806Z,5.03
2019-02-11T13:32:41.019Z,3.60
2019-02-11T13:35:09.803Z,4.03
2019-02-11T13:37:38.566Z,5.87
2019-02-11T13:40:07.449Z,2.90
2019-02-11T13:42:36.123Z,5.25
2019-02-11T13:45:07.158Z,4.55
2019-02-11T13:47:52.423Z,5.28
2019-02-11T13:50:06.399Z,6.67
2019-02-11T13:52:35.319Z,7.27
2019-02-11T13:55:04.481Z,5.17
2019-02-11T13:57:33.250Z,2.70
2019-02-11T14:00:03.091Z,3.90
2019-02-11T14:02:31.832Z,2.02
2019-02-11T14:05:00.762Z,6.97
2019-02-11T14:07:29.603Z,3.98
2019-02-11T14:10:02.370Z,6.58
2019-02-11T14:12:30.429Z,3.90
2019-02-11T14:14:59.167Z,5.30
2019-02-11T14:17:27.920Z,5.45
2019-02-11T14:20:01.610Z,7.15
2019-02-11T14:22:31.513Z,3.95
2019-02-11T14:25:00.528Z,5.10
2019-02-11T14:27:29.311Z,2.12
2019-02-11T14:29:58.031Z,4.47
2019-02-11T14:32:27.008Z,4.25
2019-02-11T14:34:55.818Z,4.28
2019-02-11T14:37:24.705Z,3.08
2019-02-11T14:39:53.537Z,4.25
2019-02-11T14:42:22.468Z,2.00
2019-02-11T14:44:51.574Z,2.92
2019-02-11T14:47:20.498Z,5.37
2019-02-11T14:49:49.328Z,3.52
2019-02-11T14:52:18.323Z,6.58
2019-02-11T14:54:47.870Z,5.65
2019-02-11T14:57:16.617Z,5.47
2019-02-11T14:59:45.367Z,6.83
2019-02-11T15:02:14.111Z,9.10
2019-02-11T15:04:43.029Z,6.78
2019-02-11T15:07:11.690Z,3.33
2019-02-11T15:09:40.425Z,4.10
2019-02-11T15:12:09.093Z,4.58
2019-02-11T15:14:37.808Z,5.27
2019-02-11T15:17:06.586Z,5.33
2019-02-11T15:19:35.375Z,5.08
2019-02-11T15:22:04.071Z,4.97
2019-02-11T15:24:32.784Z,7.60
2019-02-11T15:27:02.482Z,9.70
2019-02-11T15:29:31.173Z,6.53
2019-02-11T15:31:59.936Z,10.50
2019-02-11T15:34:28.692Z,8.28
2019-02-11T15:36:57.443Z,7.07
2019-02-11T15:39:26.170Z,9.10
2019-02-11T15:41:54.971Z,6.20
2019-02-11T15:44:23.683Z,6.58
2019-02-11T15:46:52.424Z,5.03
2019-02-11T15:49:21.129Z,7.90
2019-02-11T15:51:49.841Z,7.25
2019-02-11T15:54:18.607Z,7.47
2019-02-11T15:56:47.351Z,6.15
2019-02-11T15:59:16.080Z,11.15
2019-02-11T16:01:44.834Z,9.70
2019-02-11T16:04:13.678Z,6.92
2019-02-11T16:06:42.464Z,10.50
2019-02-11T16:09:11.217Z,3.72
2019-02-11T16:11:40.084Z,7.50
2019-02-11T16:14:08.754Z,7.58
2019-02-11T16:16:37.447Z,8.15
2019-02-11T16:19:06.124Z,7.17
2019-02-11T16:21:34.812Z,8.15
2019-02-11T16:24:03.495Z,9.70
2019-02-11T16:26:32.227Z,7.28
2019-02-11T16:29:01.193Z,8.43
2019-02-11T16:31:29.915Z,8.18
2019-02-11T16:33:58.634Z,9.87
2019-02-11T16:36:27.306Z,7.53
2019-02-11T16:38:59.095Z,9.43
2019-02-11T16:41:27.813Z,10.10
2019-02-11T16:43:56.748Z,6.05
2019-02-11T16:46:25.509Z,7.13
2019-02-11T16:49:00.296Z,7.47
2019-02-11T16:51:24.691Z,8.28
2019-02-11T16:53:53.396Z,8.20
2019-02-11T16:56:22.148Z,6.67
2019-02-11T16:58:51.015Z,7.97
2019-02-11T17:01:19.926Z,7.80
2019-02-11T17:03:48.636Z,6.03
2019-02-11T17:06:17.484Z,8.85
2019-02-11T17:08:46.306Z,13.30
2019-02-11T17:11:15.072Z,8.73
2019-02-11T17:13:43.876Z,6.95
2019-02-11T17:16:12.670Z,11.35
2019-02-11T17:18:41.422Z,5.28
2019-02-11T17:21:10.181Z,6.05
2019-02-11T17:23:38.981Z,8.58
2019-02-11T17:26:07.610Z,4.87
2019-02-11T17:28:36.300Z,9.80
2019-02-11T17:31:05.419Z,7.78
2019-02-11T17:33:34.171Z,9.45
2019-02-11T17:36:02.895Z,11.40
2019-02-11T17:38:31.652Z,8.50
2019-02-11T17:41:00.407Z,6.30
2019-02-11T17:43:29.098Z,7.60
2019-02-11T17:45:57.830Z,9.30
2019-02-11T17:48:27.008Z,7.75
2019-02-11T17:50:55.738Z,7.15
2019-02-11T17:53:24.499Z,10.88
2019-02-11T17:55:54.317Z,10.20
2019-02-11T17:58:22.981Z,7.43
2019-02-11T18:00:55.645Z,6.80
2019-02-11T18:03:24.406Z,5.17
2019-02-11T18:05:53.158Z,6.92
2019-02-11T18:08:21.848Z,8.95
2019-02-11T18:10:50.743Z,5.80
2019-02-11T18:13:19.754Z,5.85
2019-02-11T18:15:49.451Z,8.75
2019-02-11T18:18:18.189Z,5.90
2019-02-11T18:20:46.974Z,5.92
2019-02-11T18:23:16.080Z,9.08
2019-02-11T18:25:44.782Z,5.83
2019-02-11T18:28:13.543Z,9.15
2019-02-11T18:30:42.306Z,10.32
2019-02-11T18:33:11.650Z,6.25
2019-02-11T18:35:40.524Z,8.18
2019-02-11T18:38:09.267Z,11.60
2019-02-11T18:40:38.083Z,9.30
2019-02-11T18:43:06.714Z,4.62
2019-02-11T18:45:35.593Z,9.38
2019-02-11T18:48:04.437Z,8.53
2019-02-11T18:50:33.159Z,6.37
2019-02-11T18:53:01.972Z,5.92
2019-02-11T18:55:30.745Z,9.05
2019-02-11T18:57:59.502Z,6.15
2019-02-11T19:00:28.221Z,8.58
2019-02-11T19:02:56.989Z,9.75
2019-02-11T19:05:25.775Z,7.12
2019-02-11T19:07:54.610Z,9.63
2019-02-11T19:10:23.388Z,6.95
2019-02-11T19:12:52.094Z,6.53
2019-02-11T19:15:21.144Z,7.28
2019-02-11T19:17:49.992Z,6.53
2019-02-11T19:20:18.790Z,8.93
2019-02-11T19:22:47.563Z,6.70
2019-02-11T19:25:16.306Z,8.78
2019-02-11T19:27:45.332Z,9.40
2019-02-11T19:30:15.880Z,7.78
2019-02-11T19:32:44.826Z,6.87
2019-02-11T19:35:13.732Z,5.80
2019-02-11T19:37:42.471Z,7.55
2019-02-11T19:40:11.907Z,7.20
2019-02-11T19:42:40.786Z,6.80
2019-02-11T19:45:10.710Z,10.03
2019-02-11T19:47:39.467Z,5.33
2019-02-11T19:50:08.854Z,8.73
2019-02-11T19:52:37.766Z,5.12
2019-02-11T19:55:07.246Z,4.47
2019-02-11T19:57:35.978Z,3.72
2019-02-11T20:00:07.157Z,5.58
2019-02-11T20:02:36.282Z,5.58
2019-02-11T20:05:05.843Z,5.25
2019-02-11T20:07:35.046Z,5.72
2019-02-11T20:10:05.029Z,6.62
2019-02-11T20:12:33.876Z,5.20
2019-02-11T20:15:02.733Z,5.70
2019-02-11T20:17:31.753Z,6.33
2019-02-11T20:20:00.950Z,7.08
2019-02-11T20:22:32.522Z,4.87
2019-02-11T20:25:02.234Z,4.08
2019-02-11T20:27:31.540Z,6.10
2019-02-11T20:30:00.640Z,3.95
2019-02-11T20:32:29.576Z,7.30
2019-02-11T20:34:58.388Z,5.67
2019-02-11T20:37:27.262Z,4.22
2019-02-11T20:40:03.191Z,8.50
2019-02-11T20:42:28.048Z,7.53
2019-02-11T20:44:56.818Z,6.67
2019-02-11T20:47:25.654Z,3.27
2019-02-11T20:49:54.470Z,6.45
2019-02-11T20:52:23.251Z,5.42
2019-02-11T20:54:52.060Z,9.30
2019-02-11T20:57:20.858Z,5.72
2019-02-11T20:59:49.756Z,3.77
2019-02-11T21:02:18.694Z,4.95
2019-02-11T21:04:47.952Z,5.60
2019-02-11T21:07:16.721Z,3.92
2019-02-11T21:09:45.441Z,8.85
2019-02-11T21:12:14.204Z,6.47
2019-02-11T21:14:43.006Z,6.53
2019-02-11T21:17:11.787Z,6.22
2019-02-11T21:19:43.384Z,9.03
2019-02-11T21:22:12.265Z,4.05
2019-02-11T21:24:41.020Z,6.92
2019-02-11T21:27:09.956Z,4.87
2019-02-11T21:29:38.728Z,5.23
2019-02-11T21:32:07.586Z,7.93
2019-02-11T21:34:36.470Z,8.95
2019-02-11T21:37:05.142Z,8.03
2019-02-11T21:39:33.886Z,9.23
2019-02-11T21:42:02.605Z,2.83
2019-02-11T21:44:31.520Z,4.20
2019-02-11T21:47:00.269Z,9.33
2019-02-11T21:49:29.048Z,3.12
2019-02-11T21:51:57.805Z,5.78
2019-02-11T21:54:26.715Z,7.47
2019-02-11T21:56:55.503Z,5.92
2019-02-11T21:59:24.249Z,5.87
2019-02-11T22:01:52.944Z,4.63
2019-02-11T22:04:21.696Z,10.03
2019-02-11T22:06:50.506Z,5.45
2019-02-11T22:09:19.209Z,6.08
2019-02-11T22:11:48.064Z,6.67
2019-02-11T22:14:16.887Z,5.95
2019-02-11T22:16:46.575Z,6.85
2019-02-11T22:19:15.423Z,6.10
2019-02-11T22:21:47.083Z,4.28
2019-02-11T22:24:16.547Z,5.28
2019-02-11T22:26:45.694Z,5.10
2019-02-11T22:29:16.277Z,9.75
2019-02-11T22:31:45.587Z,5.28
2019-02-11T22:34:14.473Z,6.17
2019-02-11T22:36:43.155Z,4.10
2019-02-11T22:39:11.813Z,9.03
2019-02-11T22:41:40.601Z,4.85
2019-02-11T22:44:09.272Z,6.13
2019-02-11T22:46:38.022Z,4.90
2019-02-11T22:49:06.920Z,5.67
2019-02-11T22:51:35.748Z,4.15
2019-02-11T22:54:05.553Z,2.65
2019-02-11T22:56:34.254Z,5.00
2019-02-11T22:59:03.012Z,2.83
2019-02-11T23:01:31.995Z,2.37
2019-02-11T23:04:00.693Z,4.33
2019-02-11T23:06:29.373Z,3.57
2019-02-11T23:08:58.276Z,5.40
2019-02-11T23:11:27.111Z,4.35
2019-02-11T23:13:55.810Z,4.83
2019-02-11T23:16:24.591Z,4.67
2019-02-11T23:18:53.299Z,5.47
2019-02-11T23:21:23.057Z,5.80
2019-02-11T23:23:51.884Z,2.67
2019-02-11T23:26:20.662Z,3.70
2019-02-11T23:28:49.389Z,3.52
2019-02-11T23:31:18.166Z,5.65
2019-02-11T23:33:46.837Z,3.60
2019-02-11T23:36:15.491Z,7.45
2019-02-11T23:38:44.185Z,5.67
2019-02-11T23:41:12.824Z,6.55
2019-02-11T23:43:41.513Z,2.27
2019-02-11T23:46:10.188Z,3.98
2019-02-11T23:48:38.945Z,3.20
2019-02-11T23:51:07.670Z,5.70
2019-02-11T23:53:36.324Z,4.05
2019-02-11T23:56:04.997Z,3.83
2019-02-11T23:58:33.757Z,4.30
